Nearby METAR Reports

 

KOFF - Offutt Afb/Belle, Nebraska, USA
Distance from station: ESE 2mi, 4km
Updated: 11/24/2017 10:56pm
Clear
Clear
 Wind from WSW
Wind: WSW 6 mph , 9 km/h
Temperature: 45°F , 7°C
Wind Chill: 42°F , 6°C
Dew Point: 34°F , 1°C
Humidity: 66%
Barometer: 29.95 inHg , 1014.2 hPa
Clouds: Clear
Visibility: 10 miles , 16 km
2017/11/25 04:56 KOFF 250456Z AUTO 25005KT 10SM CLR 07/01 A2995 RMK AO2 SLP146 T00710007 $
KMLE - Omaha/Millard, Nebraska, USA
Distance from station: WNW 10mi, 16km
Updated: 11/24/2017 10:55pm
Clear
Clear
 Wind from WNW
Wind: WNW 7 mph , 11 km/h
Temperature: 46°F , 8°C
Wind Chill: 42°F , 6°C
Dew Point: 36°F , 2°C
Humidity: 66%
Barometer: 29.96 inHg , 1014.6 hPa
Clouds: Clear
Visibility: 10 miles , 16 km
2017/11/25 04:55 KMLE 250455Z AUTO 30006KT 10SM CLR 08/02 A2996 RMK AO2 T00830015
 
KOMA - Omaha/Eppley, Nebraska, USA
Distance from station: NNE 13mi, 21km
Updated: 11/24/2017 10:52pm
Clear
Clear
 Wind from NW
Wind: NW 3 mph , 6 km/h
Temperature: 39°F , 4°C
Dew Point: 32°F , 0°C
Humidity: 75%
Barometer: 29.94 inHg , 1013.9 hPa
Clouds: Clear
Visibility: 10 miles , 16 km
2017/11/25 04:52 KOMA 250452Z 31003KT 10SM CLR 04/00 A2994 RMK AO2 PRESRR SLP140 T00390000
KPMV - Plattsmouth Muni, Nebraska, USA
Distance from station: S 13mi, 21km
Updated: 11/24/2017 11:15pm
Clear
Clear
 Wind from W
Wind: W 5 mph , 7 km/h
Temperature: 43°F , 6°C
Wind Chill: 40°F , 4°C
Dew Point: 34°F , 1°C
Humidity: 71%
Barometer: 29.97 inHg , 1014.9 hPa
Clouds: Clear
Visibility: 10 miles , 16 km
2017/11/25 05:15 KPMV 250515Z AUTO 28004KT 10SM CLR 06/01 A2997 RMK AO2 T00590014
 
KCBF - Council Bluffs, Iowa, USA
Distance from station: NE 13mi, 22km
Updated: 11/24/2017 11:15pm
Clear
Clear
 Wind from W
Wind: W 6 mph , 9 km/h
Temperature: 43°F , 6°C
Wind Chill: 39°F , 4°C
Dew Point: 36°F , 2°C
Humidity: 76%
Barometer: 29.95 inHg , 1014.2 hPa
Clouds: Clear
Visibility: 10 miles , 16 km
2017/11/25 05:15 KCBF 250515Z AUTO 28005KT 10SM CLR 06/02 A2995 RMK AO2
KBTA - Blair Muni, Nebraska, USA
Distance from station: NNW 21mi, 34km
Updated: 11/24/2017 11:15pm
Clear
Clear
 Wind from WNW
Wind: WNW 6 mph , 9 km/h
Temperature: 43°F , 6°C
Wind Chill: 39°F , 4°C
Dew Point: 34°F , 1°C
Humidity: 71%
Barometer: 29.96 inHg , 1014.6 hPa
Clouds: Clear
Visibility: 10 miles , 16 km
2017/11/25 05:15 KBTA 250515Z AUTO 29005KT 10SM CLR 06/01 A2996 RMK AO2 T00620008
 
KAHQ - Wahoo, Nebraska, USA
Distance from station: W 34mi, 55km
Updated: 11/24/2017 11:15pm
Clear
Clear
 Wind from WNW
Wind: WNW 7 mph , 11 km/h
Temperature: 41°F , 5°C
Wind Chill: 36°F , 2°C
Dew Point: 32°F , 0°C
Humidity: 70%
Barometer: 29.98 inHg , 1015.2 hPa
Clouds: Clear
Visibility: 10 miles , 16 km
2017/11/25 05:15 KAHQ 250515Z AUTO 29006KT 10SM CLR 05/00 A2998 RMK AO2 T00480004
KFET - Fremont Muni Arp, Nebraska, USA
Distance from station: NW 37mi, 59km
Updated: 11/24/2017 11:15pm
Clear
Clear
 Wind from WNW
Wind: WNW 5 mph , 7 km/h
Temperature: 37°F , 3°C
Wind Chill: 33°F , 1°C
Dew Point: 32°F , 0°C
Humidity: 81%
Barometer: 29.98 inHg , 1015.2 hPa
Clouds: Clear
Visibility: 10 miles , 16 km
2017/11/25 05:15 KFET 250515Z AUTO 29004KT 10SM CLR 03/00 A2998 RMK AO2 T00270000
 
KRDK - Red Oak, Iowa, USA
Distance from station: ESE 37mi, 59km
Updated: 11/24/2017 11:15pm
Clear
Clear
 Wind from calm
Wind: Calm
Temperature: 41°F , 5°C
Dew Point: 34°F , 1°C
Humidity: 76%
Barometer: 29.95 inHg , 1014.2 hPa
Clouds: Clear
Visibility: 10 miles , 16 km
2017/11/25 05:15 KRDK 250515Z AUTO 00000KT 10SM CLR 05/01 A2995 RMK AO2
KAFK - Nebraska City, Nebraska, USA
Distance from station: S 37mi, 60km
Updated: 11/24/2017 11:15pm
Clear
Clear
 Wind from NW
Wind: NW 8 mph , 13 km/h
Temperature: 45°F , 7°C
Wind Chill: 41°F , 5°C
Dew Point: 36°F , 2°C
Humidity: 71%
Barometer: 29.97 inHg , 1014.9 hPa
Clouds: Clear
Visibility: 10 miles , 16 km
2017/11/25 05:15 KAFK 250515Z AUTO 31007KT 10SM CLR 07/02 A2997 RMK AO2 T00730019
 
KSDA - Shenandoah Muni, Iowa, USA
Distance from station: SE 39mi, 62km
Updated: 11/24/2017 11:15pm
Clear
Clear
 Wind from W
Wind: W 6 mph , 9 km/h
Temperature: 41°F , 5°C
Wind Chill: 37°F , 3°C
Dew Point: 34°F , 1°C
Humidity: 76%
Barometer: 29.97 inHg , 1014.9 hPa
Clouds: Clear
Visibility: 10 miles , 16 km
2017/11/25 05:15 KSDA 250515Z AUTO 26005KT 10SM CLR 05/01 A2997 RMK AO2
KHNR - Harlan Muni, Iowa, USA
Distance from station: NE 45mi, 72km
Updated: 11/24/2017 11:15pm
Clear
Clear
 Wind from NNW
Wind: NNW 5 mph , 7 km/h
Temperature: 41°F , 5°C
Wind Chill: 38°F , 3°C
Dew Point: 34°F , 1°C
Humidity: 76%
Barometer: 29.96 inHg , 1014.6 hPa
Clouds: Clear
Visibility: 10 miles , 16 km
2017/11/25 05:15 KHNR 250515Z AUTO 34004KT 10SM CLR 05/01 A2996 RMK AO2
 
KTQE - Tekamah, Nebraska, USA
Distance from station: NNW 45mi, 73km
Updated: 11/24/2017 10:54pm
Clear
Clear
 Wind from W
Wind: W 9 mph , 15 km/h
Temperature: 36°F , 2°C
Wind Chill: 29°F , -2°C
Dew Point: 27°F , -3°C
Humidity: 70%
Barometer: 29.94 inHg , 1013.9 hPa
Clouds: Clear
Visibility: 10 miles , 16 km
2017/11/25 04:54 KTQE 250454Z AUTO 26008KT 10SM CLR 02/M03 A2994 RMK AO2 PRESRR SLP138 T00171028
KLNK - Lincoln, Nebraska, USA
Distance from station: WSW 47mi, 75km
Updated: 11/24/2017 10:54pm
Clear
Clear
 Wind from W
Wind: W 6 mph , 9 km/h
Temperature: 43°F , 6°C
Wind Chill: 39°F , 4°C
Dew Point: 34°F , 1°C
Humidity: 71%
Barometer: 30.00 inHg , 1015.9 hPa
Clouds: Clear
Visibility: 10 miles , 16 km
2017/11/25 04:54 KLNK 250454Z AUTO 26005KT 10SM CLR 06/01 A3000 RMK AO2 SLP157 T00560006